createdAt,value
2019-04-16T00:02:08.641Z,6.80
2019-04-16T00:06:39.957Z,6.80
2019-04-16T00:10:52.068Z,6.60
2019-04-16T00:14:55.603Z,6.80
2019-04-16T00:19:05.607Z,6.80
2019-04-16T00:23:18.596Z,6.50
2019-04-16T00:27:21.642Z,6.50
2019-04-16T00:31:24.770Z,6.40
2019-04-16T00:35:27.753Z,6.60
2019-04-16T00:39:30.760Z,6.40
2019-04-16T00:43:36.509Z,6.30
2019-04-16T00:47:39.774Z,6.30
2019-04-16T00:51:42.919Z,6.30
2019-04-16T00:55:46.011Z,6.30
2019-04-16T00:59:49.059Z,6.20
2019-04-16T01:03:52.220Z,6.20
2019-04-16T01:07:55.278Z,6.20
2019-04-16T01:11:58.656Z,6.40
2019-04-16T01:16:03.444Z,6.30
2019-04-16T01:20:11.637Z,6.20
2019-04-16T01:24:11.675Z,6.20
2019-04-16T01:28:20.425Z,6.10
2019-04-16T01:32:44.344Z,5.90
2019-04-16T01:37:07.860Z,6.10
2019-04-16T01:41:12.815Z,6.00
2019-04-16T01:45:29.627Z,5.80
2019-04-16T01:49:29.866Z,5.80
2019-04-16T01:53:35.035Z,5.70
2019-04-16T01:57:38.056Z,5.70
2019-04-16T02:01:43.490Z,5.50
2019-04-16T02:05:49.170Z,5.50
2019-04-16T02:09:52.259Z,5.40
2019-04-16T02:13:55.321Z,5.50
2019-04-16T02:17:58.831Z,5.40
2019-04-16T02:22:05.558Z,5.20
2019-04-16T02:26:08.550Z,5.10
2019-04-16T02:30:11.824Z,5.10
2019-04-16T02:34:14.861Z,5.30
2019-04-16T02:38:17.921Z,5.20
2019-04-16T02:42:21.077Z,5.30
2019-04-16T02:46:30.816Z,5.30
2019-04-16T02:50:49.341Z,5.00
2019-04-16T02:55:12.469Z,5.00
2019-04-16T02:59:20.236Z,5.00
2019-04-16T03:03:40.081Z,5.00
2019-04-16T03:07:43.110Z,4.80
2019-04-16T03:11:48.917Z,4.80
2019-04-16T03:16:19.815Z,5.10
2019-04-16T03:20:25.749Z,5.10
2019-04-16T03:24:32.033Z,4.90
2019-04-16T03:28:35.082Z,4.90
2019-04-16T03:32:50.836Z,4.90
2019-04-16T03:36:53.894Z,4.80
2019-04-16T03:40:57.111Z,4.80
2019-04-16T03:45:09.201Z,5.00
2019-04-16T03:49:11.698Z,4.90
2019-04-16T03:53:17.579Z,4.60
2019-04-16T03:57:19.614Z,4.60
2019-04-16T04:01:22.617Z,4.60
2019-04-16T04:05:25.660Z,4.70
2019-04-16T04:09:29.053Z,4.80
2019-04-16T04:13:32.130Z,4.80
2019-04-16T04:17:38.346Z,4.80
2019-04-16T04:21:40.604Z,4.50
2019-04-16T04:25:43.764Z,4.70
2019-04-16T04:29:47.223Z,4.70
2019-04-16T04:33:59.470Z,4.70
2019-04-16T04:38:04.151Z,4.40
2019-04-16T04:42:11.247Z,4.50
2019-04-16T04:46:15.526Z,4.60
2019-04-16T04:50:18.702Z,4.50
2019-04-16T04:54:24.802Z,4.20
2019-04-16T04:58:27.929Z,4.60
2019-04-16T05:02:31.069Z,4.70
2019-04-16T05:06:37.978Z,4.70
2019-04-16T05:10:43.297Z,4.60
2019-04-16T05:14:57.372Z,4.70
2019-04-16T05:18:59.891Z,4.80
2019-04-16T05:23:02.987Z,4.70
2019-04-16T05:27:09.452Z,4.70
2019-04-16T05:31:12.639Z,5.00
2019-04-16T05:35:15.717Z,4.70
2019-04-16T05:39:18.880Z,4.90
2019-04-16T05:43:22.811Z,4.90
2019-04-16T05:47:29.899Z,5.10
2019-04-16T05:51:36.071Z,5.10
2019-04-16T05:55:58.500Z,5.20
2019-04-16T06:00:03.248Z,5.40
2019-04-16T06:04:06.935Z,5.40
2019-04-16T06:08:10.909Z,5.50
2019-04-16T06:12:21.618Z,5.50
2019-04-16T06:16:42.346Z,5.60
2019-04-16T06:21:04.849Z,5.60
2019-04-16T06:25:25.961Z,5.60
2019-04-16T06:29:41.377Z,5.90
2019-04-16T06:33:50.333Z,5.90
2019-04-16T06:38:21.669Z,6.00
2019-04-16T06:42:38.520Z,6.00
2019-04-16T06:46:55.558Z,6.10
2019-04-16T06:51:21.181Z,6.10
2019-04-16T06:55:46.544Z,6.30
2019-04-16T06:59:56.301Z,6.40
2019-04-16T07:04:17.178Z,6.50
2019-04-16T07:08:37.958Z,6.50
2019-04-16T07:12:38.173Z,6.70
2019-04-16T07:16:38.856Z,6.80
2019-04-16T07:20:42.365Z,7.00
2019-04-16T07:24:55.203Z,7.10
2019-04-16T07:29:04.805Z,7.10
2019-04-16T07:33:35.655Z,7.10
2019-04-16T07:38:05.697Z,7.30
2019-04-16T07:42:22.814Z,7.50
2019-04-16T07:46:47.094Z,7.50
2019-04-16T07:51:08.025Z,7.60
2019-04-16T07:55:29.435Z,7.70
2019-04-16T07:59:32.996Z,7.80
2019-04-16T08:03:36.454Z,7.90
2019-04-16T08:07:39.619Z,8.00
2019-04-16T08:11:48.791Z,8.20
2019-04-16T08:15:51.915Z,8.20
2019-04-16T08:19:56.038Z,8.20
2019-04-16T08:24:04.795Z,8.50
2019-04-16T08:28:07.917Z,8.50
2019-04-16T08:32:12.832Z,8.60
2019-04-16T08:36:15.858Z,8.80
2019-04-16T08:40:19.159Z,8.90
2019-04-16T08:44:25.299Z,8.90
2019-04-16T08:48:28.471Z,9.10
2019-04-16T08:52:31.627Z,9.20
2019-04-16T08:56:34.641Z,9.30
2019-04-16T09:00:46.660Z,9.40
2019-04-16T09:04:50.786Z,9.60
2019-04-16T09:09:18.472Z,9.70
2019-04-16T09:13:24.060Z,9.80
2019-04-16T09:17:33.563Z,10.00
2019-04-16T09:21:36.649Z,10.10
2019-04-16T09:26:13.563Z,10.30
2019-04-16T09:30:26.780Z,10.40
2019-04-16T09:34:40.603Z,10.60
2019-04-16T09:39:07.950Z,10.70
2019-04-16T09:43:17.701Z,10.90
2019-04-16T09:47:21.652Z,11.10
2019-04-16T09:51:27.776Z,11.30
2019-04-16T09:55:30.992Z,11.50
2019-04-16T09:59:53.046Z,12.00
2019-04-16T10:03:56.241Z,12.40
2019-04-16T10:07:59.354Z,13.10
2019-04-16T10:12:05.001Z,14.20
2019-04-16T10:16:07.877Z,15.40
2019-04-16T10:20:11.186Z,16.10
2019-04-16T10:24:44.057Z,16.50
2019-04-16T10:28:47.262Z,17.10
2019-04-16T10:32:50.518Z,17.70
2019-04-16T10:36:53.561Z,18.00
2019-04-16T10:41:09.004Z,18.40
2019-04-16T10:45:34.564Z,18.50
2019-04-16T10:50:14.854Z,18.50
2019-04-16T10:54:43.435Z,18.60
2019-04-16T10:59:04.416Z,19.10
2019-04-16T11:03:39.437Z,18.60
2019-04-16T11:07:46.282Z,18.90
2019-04-16T11:11:49.409Z,19.80
2019-04-16T11:15:52.952Z,20.70
2019-04-16T11:19:59.851Z,21.30
2019-04-16T11:24:04.634Z,20.60
2019-04-16T11:28:07.880Z,21.10
2019-04-16T11:32:12.733Z,21.70
2019-04-16T11:36:20.858Z,21.80
2019-04-16T11:40:23.753Z,21.90
2019-04-16T11:44:26.984Z,21.30
2019-04-16T11:48:37.228Z,21.90
2019-04-16T11:52:43.817Z,22.50
2019-04-16T11:56:59.452Z,22.00
2019-04-16T12:01:07.206Z,22.80
2019-04-16T12:05:29.944Z,22.90
2019-04-16T12:09:41.873Z,22.70
2019-04-16T12:14:30.714Z,22.90
2019-04-16T12:18:46.478Z,22.20
2019-04-16T12:23:11.769Z,22.50
2019-04-16T12:27:32.784Z,22.10
2019-04-16T12:31:50.374Z,22.30
2019-04-16T12:36:15.765Z,21.80
2019-04-16T12:40:36.516Z,21.80
2019-04-16T12:44:54.146Z,21.60
2019-04-16T12:49:28.719Z,22.90
2019-04-16T12:53:57.222Z,22.70
2019-04-16T12:58:20.231Z,22.30
2019-04-16T13:02:44.826Z,21.60
2019-04-16T13:06:57.820Z,21.10
2019-04-16T13:11:19.709Z,22.30
2019-04-16T13:15:32.226Z,21.20
2019-04-16T13:19:38.721Z,20.80
2019-04-16T13:23:47.643Z,21.20
2019-04-16T13:27:51.703Z,22.60
2019-04-16T13:31:57.545Z,22.70
2019-04-16T13:36:00.594Z,22.30
2019-04-16T13:40:10.807Z,23.90
2019-04-16T13:44:17.298Z,24.40
2019-04-16T13:48:44.860Z,23.90
2019-04-16T13:52:51.983Z,23.50
2019-04-16T13:57:01.603Z,22.10
2019-04-16T14:01:13.465Z,23.40
2019-04-16T14:05:23.048Z,24.30
2019-04-16T14:09:26.205Z,24.50
2019-04-16T14:13:29.218Z,24.90
2019-04-16T14:17:35.024Z,24.20
2019-04-16T14:21:37.396Z,24.70
2019-04-16T14:25:40.464Z,25.30
2019-04-16T14:29:43.531Z,25.60
2019-04-16T14:33:51.717Z,22.70
2019-04-16T14:37:58.146Z,24.10
2019-04-16T14:42:04.475Z,24.50
2019-04-16T14:46:09.517Z,24.00
2019-04-16T14:50:13.694Z,24.40
2019-04-16T14:54:23.359Z,23.50
2019-04-16T14:58:47.080Z,22.80
2019-04-16T15:03:08.306Z,21.70
2019-04-16T15:07:23.717Z,21.90
2019-04-16T15:11:49.014Z,20.30
2019-04-16T15:16:13.846Z,19.60
2019-04-16T15:20:51.604Z,19.50
2019-04-16T15:25:20.828Z,18.90
2019-04-16T15:29:49.151Z,18.70
2019-04-16T15:33:58.326Z,18.70
2019-04-16T15:38:16.440Z,18.30
2019-04-16T15:42:39.613Z,18.20
2019-04-16T15:47:14.981Z,17.80
2019-04-16T15:51:39.545Z,17.80
2019-04-16T15:56:07.680Z,17.60
2019-04-16T16:00:28.222Z,17.70
2019-04-16T16:04:56.834Z,17.10
2019-04-16T16:09:19.087Z,17.40
2019-04-16T16:13:22.818Z,17.40
2019-04-16T16:17:27.227Z,17.00
2019-04-16T16:21:30.322Z,17.10
2019-04-16T16:25:33.533Z,16.90
2019-04-16T16:29:36.871Z,17.00
2019-04-16T16:33:39.970Z,16.50
2019-04-16T16:37:43.531Z,16.40
2019-04-16T16:41:46.839Z,16.40
2019-04-16T16:46:03.566Z,16.60
2019-04-16T16:50:15.187Z,16.50
2019-04-16T16:54:24.822Z,16.30
2019-04-16T16:58:40.233Z,16.10
2019-04-16T17:02:49.164Z,16.00
2019-04-16T17:06:52.516Z,15.80
2019-04-16T17:10:55.840Z,15.90
2019-04-16T17:14:58.965Z,15.90
2019-04-16T17:19:11.125Z,15.80
2019-04-16T17:23:16.688Z,15.70
2019-04-16T17:27:19.041Z,15.60
2019-04-16T17:31:22.083Z,15.50
2019-04-16T17:35:25.103Z,15.60
2019-04-16T17:39:50.050Z,15.50
2019-04-16T17:44:11.218Z,15.50
2019-04-16T17:48:33.346Z,15.40
2019-04-16T17:53:01.633Z,15.40
2019-04-16T17:57:29.002Z,15.30
2019-04-16T18:01:58.694Z,15.10
2019-04-16T18:06:23.910Z,15.10
2019-04-16T18:10:46.430Z,15.00
2019-04-16T18:15:17.675Z,14.90
2019-04-16T18:19:51.108Z,14.90
2019-04-16T18:24:19.432Z,14.80
2019-04-16T18:28:36.626Z,14.70
2019-04-16T18:32:59.317Z,14.60
2019-04-16T18:37:25.937Z,14.50
2019-04-16T18:41:38.477Z,14.40
2019-04-16T18:46:07.435Z,14.30
2019-04-16T18:50:22.216Z,14.30
2019-04-16T18:54:22.451Z,14.20
2019-04-16T18:58:25.481Z,14.10
2019-04-16T19:02:30.148Z,14.00
2019-04-16T19:06:34.077Z,14.00
2019-04-16T19:10:37.225Z,13.90
2019-04-16T19:14:40.324Z,13.80
2019-04-16T19:18:43.419Z,13.80
2019-04-16T19:22:49.861Z,13.70
2019-04-16T19:26:53.830Z,13.70
2019-04-16T19:30:57.150Z,13.60
2019-04-16T19:35:09.498Z,13.60
2019-04-16T19:39:07.121Z,13.50
2019-04-16T19:43:11.244Z,13.40
2019-04-16T19:47:14.330Z,13.40
2019-04-16T19:51:19.585Z,13.40
2019-04-16T19:55:25.239Z,13.20
2019-04-16T19:59:28.320Z,13.20
2019-04-16T20:03:34.367Z,13.10
2019-04-16T20:07:37.526Z,13.00
2019-04-16T20:11:40.573Z,13.10
2019-04-16T20:15:44.263Z,13.00
2019-04-16T20:19:59.504Z,12.90
2019-04-16T20:24:02.572Z,12.80
2019-04-16T20:28:08.971Z,12.80
2019-04-16T20:32:13.968Z,12.80
2019-04-16T20:36:22.490Z,12.70
2019-04-16T20:40:22.190Z,12.60
2019-04-16T20:44:28.320Z,12.50
2019-04-16T20:48:34.440Z,12.40
2019-04-16T20:52:37.533Z,12.30
2019-04-16T20:56:43.527Z,12.30
2019-04-16T21:00:51.050Z,12.30
2019-04-16T21:04:54.444Z,12.20
2019-04-16T21:08:58.306Z,12.20
2019-04-16T21:13:01.567Z,12.00
2019-04-16T21:17:16.770Z,12.00
2019-04-16T21:21:25.762Z,12.00
2019-04-16T21:25:28.798Z,12.00
2019-04-16T21:29:35.330Z,11.70
2019-04-16T21:33:49.262Z,11.70
2019-04-16T21:38:06.922Z,11.70
2019-04-16T21:42:10.245Z,11.70
2019-04-16T21:46:13.480Z,11.70
2019-04-16T21:50:17.070Z,11.60
2019-04-16T21:54:23.313Z,11.50
2019-04-16T21:58:29.729Z,11.40
2019-04-16T22:02:37.899Z,11.50
2019-04-16T22:06:40.398Z,11.40
2019-04-16T22:10:46.503Z,11.30
2019-04-16T22:14:50.978Z,11.30
2019-04-16T22:18:53.623Z,11.20
2019-04-16T22:23:09.139Z,11.10
2019-04-16T22:27:12.754Z,11.00
2019-04-16T22:31:15.880Z,11.00
2019-04-16T22:35:22.089Z,11.00
2019-04-16T22:39:35.508Z,10.90
2019-04-16T22:44:06.819Z,10.90
2019-04-16T22:48:10.283Z,10.80
2019-04-16T22:52:13.439Z,10.80
2019-04-16T22:56:16.628Z,10.80
2019-04-16T23:00:44.362Z,10.70
2019-04-16T23:04:49.858Z,10.50
2019-04-16T23:08:53.131Z,10.60
2019-04-16T23:13:00.666Z,10.60
2019-04-16T23:17:02.621Z,10.50
2019-04-16T23:21:08.628Z,10.40
2019-04-16T23:25:10.678Z,10.30
2019-04-16T23:29:16.336Z,10.20
2019-04-16T23:33:19.545Z,10.30
2019-04-16T23:37:23.408Z,10.20
2019-04-16T23:41:30.218Z,10.20
2019-04-16T23:45:55.387Z,10.10
2019-04-16T23:50:15.933Z,10.10
2019-04-16T23:54:23.568Z,10.00
2019-04-16T23:58:35.563Z,9.90
